首页
METAR-TAF:

METAR-TAF

机场 :

山胡桃, 北卡罗来纳州, 美国

纬度: 35-44-32N, 经度: 081-22-56W, 海拔: 362米

当前天气观测

该预报发布于50分钟前的08:53 UTC
风速3节,风向西北
温度 3°C
湿度 70%
气压 1023 hPa
能見度: 16.1公里
少量云层高于5500英尺
散云层高于8000英尺
多云层高于10000英尺

METAR: KHKY 150853Z AUTO 31003KT 10SM FEW055 SCT080 BKN100 03/M02 A3021 RMK AO2 SLP225 T00331017 56018

时间: 04:43 (09:43 UTC)

预报

该预报发布于4小时和3分钟前的05:40 UTC
预报有效从15日的 06点(UTC)到 16日的 06点(UTC)
风速3节,风向多变
能見度: 10公里
阴天层高于7000英尺
附近有阵雨
从 15日的 1600点(UTC)
风速6节,风向北转东北
能見度: 10公里
多云层高于5000英尺

TAF: KHKY 150540Z 1506/1606 VRB03KT P6SM VCSH OVC070 FM151600 03006KT P6SM BKN050

超过4000个机场的气象观测和天气预报(METAR&TAF报告)。

可查询的气象台以黄色和红色小点在地图上表示。

将鼠标移到小点上方,可查看气象台名称。

然后点击查看天气观测和预报。

如需切换地图:点击带黑十字的绿色按钮放大地图;点击带横线的绿色按钮缩小地图;或者点击绿色箭头查看邻近地区的地图。


METAR-TAF: